Time;durP1;ratioP1;P1;durP2;ratioP2;P2;SDS_P1;SDS_P2;PMS_P1;PMS_P2;Temp;Humidity;BMP_temperature;BMP_pressure;BME280_temperature;BME280_humidity;BME280_pressure;Samples;Min_cycle;Max_cycle;Signal;HPM_P1;HPM_P2
2021/03/29 00:00:51;;;;;;;7.05;4.60;;;;;;;10.60;41.52;95136.06;6075172;23;20026;-81
2021/03/29 00:03:17;;;;;;;8.27;5.78;;;;;;;10.51;41.43;95121.72;6076086;23;20030;-81
2021/03/29 00:05:43;;;;;;;7.60;5.53;;;;;;;10.57;41.32;95133.13;6076865;23;20030;-82
2021/03/29 00:08:19;;;;;;;6.78;5.15;;;;;;;10.57;41.47;95143.69;6072730;23;20019;-81
2021/03/29 00:10:52;;;;;;;9.23;5.15;;;;;;;10.48;41.88;95142.59;6051306;23;20089;-81
2021/03/29 00:13:19;;;;;;;5.80;4.45;;;;;;;10.41;41.21;95138.31;6029952;23;20354;-81
2021/03/29 00:15:47;;;;;;;10.43;5.53;;;;;;;10.30;41.07;95112.09;6037297;23;20722;-81
2021/03/29 00:18:14;;;;;;;6.15;4.97;;;;;;;10.45;41.58;95143.91;6044416;23;20034;-81
2021/03/29 00:20:44;;;;;;;10.10;4.70;;;;;;;10.43;42.37;95144.16;6049580;23;20019;-82
2021/03/29 00:23:10;;;;;;;7.38;4.95;;;;;;;10.35;41.84;95138.53;6049389;23;20457;-82
2021/03/29 00:25:36;;;;;;;6.32;4.72;;;;;;;10.30;41.79;95130.59;6081153;23;20002;-82
2021/03/29 00:28:03;;;;;;;7.45;5.35;;;;;;;10.29;41.58;95123.69;6076205;23;20018;-82
2021/03/29 00:30:33;;;;;;;6.70;5.43;;;;;;;10.29;41.76;95136.91;6057489;23;20050;-82
2021/03/29 00:32:59;;;;;;;7.80;5.28;;;;;;;10.18;42.25;95129.94;6060902;23;20462;-81
2021/03/29 00:35:26;;;;;;;10.50;4.63;;;;;;;10.02;42.03;95124.53;6069330;23;20027;-81
2021/03/29 00:37:54;;;;;;;8.52;4.63;;;;;;;9.91;42.51;95119.44;6047715;23;20002;-80
2021/03/29 00:40:21;;;;;;;7.97;5.60;;;;;;;9.94;42.65;95125.00;6048072;23;20078;-81
2021/03/29 00:42:51;;;;;;;11.40;5.13;;;;;;;9.96;42.62;95124.75;6072264;23;20021;-81
2021/03/29 00:45:19;;;;;;;13.48;6.00;;;;;;;9.88;42.74;95127.84;6075919;23;20105;-81
2021/03/29 00:47:46;;;;;;;11.65;5.88;;;;;;;9.73;43.18;95115.28;6075475;23;20061;-81
2021/03/29 00:50:36;;;;;;;9.15;6.10;;;;;;;9.75;44.03;95123.78;6077485;23;20172;-81
2021/03/29 00:53:02;;;;;;;6.80;5.43;;;;;;;9.67;43.58;95124.25;6060660;23;20656;-80
2021/03/29 00:55:29;;;;;;;8.52;4.90;;;;;;;9.65;44.05;95131.59;6047093;23;19995;-80
2021/03/29 00:57:55;;;;;;;7.32;4.90;;;;;;;9.65;43.58;95126.31;6047346;23;20023;-80
2021/03/29 01:00:32;;;;;;;8.95;5.38;;;;;;;9.54;43.46;95111.44;6068957;23;20018;-81
2021/03/29 01:03:01;;;;;;;8.45;4.82;;;;;;;9.35;43.30;95086.44;6072550;23;20409;-80
2021/03/29 01:05:27;;;;;;;9.88;5.15;;;;;;;9.59;43.56;95135.22;6076276;23;20484;-82
2021/03/29 01:07:53;;;;;;;8.70;5.10;;;;;;;9.43;43.50;95109.75;6076779;23;19998;-83
2021/03/29 01:10:21;;;;;;;9.15;5.00;;;;;;;9.47;43.72;95110.84;6079658;23;20006;-82
2021/03/29 01:12:51;;;;;;;9.25;5.15;;;;;;;9.57;43.25;95132.06;6076154;23;20025;-81
2021/03/29 01:15:22;;;;;;;8.07;4.50;;;;;;;9.57;43.45;95134.69;6047491;23;20012;-81
2021/03/29 01:17:49;;;;;;;8.57;5.13;;;;;;;9.67;43.32;95136.63;6046655;23;20018;-81
2021/03/29 01:20:51;;;;;;;6.03;4.43;;;;;;;9.78;43.41;95141.75;6047698;23;20023;-81
2021/03/29 01:23:19;;;;;;;7.15;4.75;;;;;;;9.80;43.98;95142.31;6046109;23;20473;-81
2021/03/29 01:25:53;;;;;;;9.45;6.10;;;;;;;9.84;43.25;95127.53;6051076;23;20353;-81
2021/03/29 01:28:22;;;;;;;7.07;5.10;;;;;;;9.81;43.32;95122.78;6046618;23;20047;-81
2021/03/29 01:30:50;;;;;;;7.10;4.97;;;;;;;9.95;42.73;95133.72;6049466;23;20018;-81
2021/03/29 01:33:19;;;;;;;6.50;4.35;;;;;;;9.84;43.29;95121.47;6065508;23;20410;-82
2021/03/29 01:35:51;;;;;;;14.15;4.95;;;;;;;9.98;42.78;95131.38;6060634;23;20026;-81
2021/03/29 01:38:20;;;;;;;6.80;5.40;;;;;;;10.00;42.59;95129.28;6076816;23;20361;-81
2021/03/29 01:40:46;;;;;;;6.13;4.18;;;;;;;9.95;42.83;95112.59;6080540;23;20013;-81
2021/03/29 01:43:14;;;;;;;6.38;4.55;;;;;;;10.08;42.08;95121.91;6075008;23;20038;-81
2021/03/29 01:45:43;;;;;;;9.93;5.13;;;;;;;10.05;42.24;95117.94;6075240;23;20049;-81
2021/03/29 01:48:10;;;;;;;7.70;4.93;;;;;;;9.94;41.90;95101.22;6075910;23;20462;-81
2021/03/29 01:50:38;;;;;;;9.45;4.82;;;;;;;10.05;42.39;95119.78;6032144;23;20909;-80
2021/03/29 01:53:11;;;;;;;9.13;5.45;;;;;;;10.07;42.08;95123.00;6045045;23;20315;-81
2021/03/29 01:55:37;;;;;;;8.18;5.18;;;;;;;9.92;42.74;95108.59;6049732;23;20592;-80
2021/03/29 01:58:05;;;;;;;8.55;5.25;;;;;;;10.01;43.36;95119.50;6047879;23;20248;-80
2021/03/29 02:00:48;;;;;;;9.73;5.43;;;;;;;10.05;42.83;95120.59;6068601;23;20060;-80
2021/03/29 02:03:14;;;;;;;8.43;4.57;;;;;;;10.00;42.67;95125.84;6076956;23;20022;-80
2021/03/29 02:05:41;;;;;;;6.20;4.40;;;;;;;10.02;42.45;95117.66;6065554;23;20571;-81
2021/03/29 02:08:08;;;;;;;6.90;5.00;;;;;;;9.91;42.91;95128.16;6037103;23;20965;-80
2021/03/29 02:10:39;;;;;;;6.95;4.85;;;;;;;9.90;43.04;95121.28;6069393;23;20011;-81
2021/03/29 02:13:30;;;;;;;6.82;4.55;;;;;;;9.96;43.04;95124.75;6048394;23;20053;-81
2021/03/29 02:15:58;;;;;;;8.05;4.63;;;;;;;9.98;42.26;95118.16;6035741;23;20598;-81
2021/03/29 02:18:26;;;;;;;10.68;5.03;;;;;;;9.94;42.36;95125.00;6049307;23;20049;-80
2021/03/29 02:20:57;;;;;;;6.88;4.55;;;;;;;9.74;41.97;95081.78;6084415;23;20322;-82
2021/03/29 02:23:23;;;;;;;6.70;4.68;;;;;;;9.81;41.90;95101.66;6077253;23;20053;-81
2021/03/29 02:25:50;;;;;;;6.82;4.57;;;;;;;9.85;42.21;95105.38;6061018;23;20326;-81
2021/03/29 02:28:16;;;;;;;7.03;4.32;;;;;;;10.07;42.02;95136.19;6052586;23;20007;-82
2021/03/29 02:30:43;;;;;;;8.38;4.50;;;;;;;9.97;42.24;95121.84;6051019;23;20026;-81
2021/03/29 02:33:11;;;;;;;7.68;4.05;;;;;;;9.93;42.51;95122.59;6066944;23;20022;-81
2021/03/29 02:35:38;;;;;;;8.40;4.65;;;;;;;9.97;42.23;95135.03;6073051;23;20022;-80
2021/03/29 02:38:08;;;;;;;11.00;8.73;;;;;;;9.99;42.13;95118.97;6094412;23;20335;-81
2021/03/29 02:40:34;;;;;;;6.32;4.65;;;;;;;10.02;42.03;95132.44;6078841;23;20346;-81
2021/03/29 02:43:05;;;;;;;6.63;4.90;;;;;;;9.96;42.20;95114.19;6048661;23;20019;-80
2021/03/29 02:45:34;;;;;;;10.63;4.57;;;;;;;9.88;42.66;95118.06;6037246;23;20647;-80
2021/03/29 02:48:05;;;;;;;11.05;6.05;;;;;;;9.74;42.60;95106.34;6076729;23;20030;-80
2021/03/29 02:50:32;;;;;;;7.40;4.70;;;;;;;9.86;42.83;95130.75;6078698;23;20044;-81
2021/03/29 02:53:01;;;;;;;5.80;4.05;;;;;;;9.79;42.90;95119.59;6079248;23;20012;-79
2021/03/29 02:55:28;;;;;;;7.85;4.72;;;;;;;9.77;43.13;95124.34;6077266;23;19990;-81
2021/03/29 02:57:58;;;;;;;7.40;4.15;;;;;;;9.61;43.43;95111.22;6077684;23;20015;-81
2021/03/29 03:00:25;;;;;;;8.32;5.47;;;;;;;9.88;43.65;95135.75;6058376;23;20574;-80
2021/03/29 03:02:53;;;;;;;7.78;6.22;;;;;;;9.77;44.24;95129.63;6046737;23;20030;-80
2021/03/29 03:05:22;;;;;;;9.93;5.53;;;;;;;9.51;44.52;95106.66;6049823;23;20448;-80
2021/03/29 03:07:50;;;;;;;12.27;5.45;;;;;;;9.62;44.50;95147.16;6040279;23;20478;-80
2021/03/29 03:10:17;;;;;;;11.68;5.85;;;;;;;9.49;44.72;95124.56;6081394;23;20019;-79
2021/03/29 03:12:45;;;;;;;9.65;5.45;;;;;;;9.61;44.66;95141.06;6074885;23;20563;-80
2021/03/29 03:15:15;;;;;;;10.85;5.75;;;;;;;9.60;44.94;95141.31;6078840;23;20018;-80
2021/03/29 03:17:47;;;;;;;16.67;6.78;;;;;;;9.48;44.99;95144.13;6065927;23;20019;-79
2021/03/29 03:20:17;;;;;;;15.57;7.25;;;;;;;9.28;45.78;95143.91;6056007;23;20018;-80
2021/03/29 03:23:00;;;;;;;11.32;6.55;;;;;;;9.18;45.82;95147.22;6079478;23;20484;-79
2021/03/29 03:25:31;;;;;;;13.50;7.03;;;;;;;9.14;46.06;95132.91;6076478;23;20023;-80
2021/03/29 03:28:00;;;;;;;15.80;8.27;;;;;;;9.23;45.88;95151.75;6050662;23;20041;-80
2021/03/29 03:30:31;;;;;;;15.60;6.22;;;;;;;9.34;45.88;95150.78;6049656;23;20022;-80
2021/03/29 03:32:57;;;;;;;15.07;6.22;;;;;;;9.42;46.29;95148.53;6061985;23;20023;-80
2021/03/29 03:35:25;;;;;;;10.05;6.22;;;;;;;9.42;46.38;95148.53;6068732;23;20049;-79
2021/03/29 03:37:58;;;;;;;10.48;6.38;;;;;;;9.38;46.24;95150.06;6050441;23;20556;-80
2021/03/29 03:40:27;;;;;;;11.93;6.35;;;;;;;9.19;46.20;95126.91;6077061;23;20029;-80
2021/03/29 03:42:58;;;;;;;11.98;7.00;;;;;;;9.31;46.84;95143.38;6053226;23;20019;-80
2021/03/29 03:45:28;;;;;;;11.65;6.68;;;;;;;9.28;46.50;95130.69;6046156;23;20015;-80
2021/03/29 03:47:55;;;;;;;12.55;7.35;;;;;;;9.47;45.96;95150.44;6050469;23;20421;-79
2021/03/29 03:50:21;;;;;;;13.15;7.05;;;;;;;9.41;46.35;95151.41;6068616;23;20405;-80
2021/03/29 03:52:48;;;;;;;12.25;6.50;;;;;;;9.31;46.58;95138.91;6051281;23;20007;-80
2021/03/29 03:55:15;;;;;;;12.52;6.53;;;;;;;9.35;46.87;95152.41;6080327;23;19994;-80
2021/03/29 03:57:42;;;;;;;9.82;7.50;;;;;;;9.27;46.59;95142.28;6052975;23;20070;-80
2021/03/29 04:00:14;;;;;;;12.35;7.95;;;;;;;9.18;47.24;95127.94;6051824;23;20019;-80
2021/03/29 04:02:45;;;;;;;13.43;8.60;;;;;;;9.22;46.97;95148.31;6056127;23;20018;-80
2021/03/29 04:05:12;;;;;;;15.45;8.45;;;;;;;9.16;46.83;95140.56;6075151;23;20109;-80
2021/03/29 04:07:41;;;;;;;14.43;8.63;;;;;;;9.21;47.00;95148.53;6079821;23;20006;-81
2021/03/29 04:10:20;;;;;;;13.52;8.15;;;;;;;9.22;46.33;95134.31;6076532;23;20662;-80
2021/03/29 04:12:52;;;;;;;17.00;7.65;;;;;;;9.13;47.52;95120.78;6077657;23;20041;-80
2021/03/29 04:15:18;;;;;;;16.60;7.80;;;;;;;8.98;47.08;95117.97;6077530;23;20018;-80
2021/03/29 04:17:44;;;;;;;14.05;8.40;;;;;;;9.04;47.11;95127.53;6062852;23;20014;-80
2021/03/29 04:20:17;;;;;;;13.02;8.50;;;;;;;9.02;46.78;95122.50;6055417;23;20010;-80
2021/03/29 04:22:42;;;;;;;13.40;7.90;;;;;;;8.92;46.69;95124.22;6079921;23;20017;-80
2021/03/29 04:25:14;;;;;;;14.88;7.20;;;;;;;8.88;46.56;95126.56;6045364;23;20023;-80
2021/03/29 04:27:40;;;;;;;15.07;8.15;;;;;;;8.86;47.67;95125.19;6057943;23;20018;-80
2021/03/29 04:30:11;;;;;;;10.70;6.95;;;;;;;8.93;46.96;95134.53;6074420;23;20018;-80
2021/03/29 04:32:47;;;;;;;13.95;6.85;;;;;;;8.78;46.19;95105.34;6075300;23;20073;-80
2021/03/29 04:35:17;;;;;;;12.20;6.60;;;;;;;8.85;46.34;95129.66;6067713;23;20541;-80
2021/03/29 04:37:42;;;;;;;10.38;5.97;;;;;;;8.75;47.25;95124.25;6052907;23;20109;-80
2021/03/29 04:40:11;;;;;;;11.20;6.10;;;;;;;8.57;47.40;95121.91;6033528;23;20442;-80
2021/03/29 04:42:37;;;;;;;12.90;6.57;;;;;;;8.56;47.92;95125.59;6048080;23;20019;-81
2021/03/29 04:45:07;;;;;;;10.07;5.85;;;;;;;8.36;47.98;95118.22;6019971;23;20023;-81
2021/03/29 04:47:34;;;;;;;12.70;6.20;;;;;;;8.37;48.11;95138.25;6039940;23;20109;-81
2021/03/29 04:50:06;;;;;;;6.70;4.93;;;;;;;8.17;48.33;95122.91;6073330;23;20492;-81
2021/03/29 04:52:32;;;;;;;8.32;5.20;;;;;;;8.16;48.79;95134.47;6050206;23;20351;-79
2021/03/29 04:54:57;;;;;;;7.78;5.25;;;;;;;8.36;48.14;95152.44;6046087;23;20011;-80
2021/03/29 04:57:23;;;;;;;11.05;5.80;;;;;;;8.60;47.93;95168.88;6065122;23;20077;-79
2021/03/29 04:59:48;;;;;;;8.40;4.65;;;;;;;8.65;47.35;95147.84;6076898;23;20022;-80
2021/03/29 05:02:14;;;;;;;12.00;6.18;;;;;;;8.72;47.55;95166.94;6069452;23;20015;-80
2021/03/29 05:04:39;;;;;;;10.52;5.63;;;;;;;8.80;47.98;95168.34;6048146;23;20010;-80
2021/03/29 05:07:12;;;;;;;19.85;8.27;;;;;;;8.74;47.61;95159.59;6043061;23;20019;-81
2021/03/29 05:09:38;;;;;;;11.00;7.57;;;;;;;8.77;47.97;95163.56;6069326;23;20539;-80
2021/03/29 05:12:09;;;;;;;12.48;4.78;;;;;;;8.78;48.29;95150.16;6074479;23;20523;-80
2021/03/29 05:14:36;;;;;;;11.65;5.03;;;;;;;8.96;48.00;95163.03;6066639;23;20021;-80
2021/03/29 05:17:02;;;;;;;8.43;5.43;;;;;;;9.03;47.14;95161.03;6050475;23;20018;-81
2021/03/29 05:19:28;;;;;;;9.90;6.07;;;;;;;9.22;47.14;95168.63;6078689;23;20003;-80
2021/03/29 05:21:53;;;;;;;13.02;6.05;;;;;;;9.26;46.52;95161.78;6050951;23;20037;-80
2021/03/29 05:24:19;;;;;;;14.15;5.45;;;;;;;9.37;46.11;95169.59;6063378;23;20026;-81
2021/03/29 05:26:44;;;;;;;8.88;5.75;;;;;;;9.50;48.13;95165.75;6060979;23;20023;-80
2021/03/29 05:29:10;;;;;;;12.65;7.15;;;;;;;9.64;48.29;95169.59;6053724;23;20010;-81
2021/03/29 05:31:40;;;;;;;16.10;9.55;;;;;;;9.70;48.73;95173.09;6076299;23;20048;-81
2021/03/29 05:34:11;;;;;;;15.50;9.80;;;;;;;9.72;49.03;95157.81;6074788;23;20801;-81
2021/03/29 05:36:37;;;;;;;14.80;9.82;;;;;;;9.98;48.07;95165.69;6074708;23;20413;-80
2021/03/29 05:39:04;;;;;;;20.60;11.73;;;;;;;10.16;48.85;95161.13;6059883;23;20023;-80
2021/03/29 05:41:30;;;;;;;23.33;11.68;;;;;;;10.28;47.88;95159.09;6051949;23;20018;-81
2021/03/29 05:43:56;;;;;;;19.95;9.52;;;;;;;10.48;47.49;95166.38;6075133;23;20401;-81
2021/03/29 05:46:22;;;;;;;16.35;8.60;;;;;;;10.70;46.84;95167.81;6077614;23;20034;-80
2021/03/29 05:48:50;;;;;;;11.57;6.45;;;;;;;10.80;45.80;95159.94;6067946;23;20069;-81
2021/03/29 05:51:16;;;;;;;16.00;8.55;;;;;;;10.71;44.51;95142.97;6057073;23;20037;-81
2021/03/29 05:53:41;;;;;;;11.73;6.93;;;;;;;11.12;43.31;95164.34;6078506;23;20465;-80
2021/03/29 05:56:10;;;;;;;11.25;7.28;;;;;;;11.23;43.38;95181.88;6075932;23;20077;-81
2021/03/29 06:01:04;;;;;;;107.93;18.35;;;;;;;11.68;42.54;95179.34;6047082;23;20420;-82
2021/03/29 06:03:39;;;;;;;28.67;11.45;;;;;;;11.87;42.03;95181.56;6048261;23;20394;-81
2021/03/29 06:06:13;;;;;;;;;;;;;;;12.23;40.59;95179.72;6049932;23;20125;-81
2021/03/29 06:08:46;;;;;;;15.20;9.90;;;;;;;12.28;40.09;95175.22;6038135;23;19968;-81
2021/03/29 06:11:22;;;;;;;21.30;9.20;;;;;;;12.69;39.89;95172.53;6072738;23;20015;-81
2021/03/29 06:13:47;;;;;;;14.60;8.38;;;;;;;12.98;38.68;95152.31;6045376;23;20014;-81
2021/03/29 06:16:13;;;;;;;15.65;8.50;;;;;;;13.16;38.16;95166.88;6080512;23;20517;-82
2021/03/29 06:18:49;;;;;;;18.30;9.88;;;;;;;13.60;37.78;95172.25;6055165;23;20077;-81
2021/03/29 06:21:19;;;;;;;23.60;9.57;;;;;;;14.32;37.45;95150.25;6046533;23;20075;-81
2021/03/29 06:23:58;;;;;;;14.60;8.10;;;;;;;15.92;33.03;95137.31;6057598;23;20073;-82
2021/03/29 06:26:32;;;;;;;16.98;7.65;;;;;;;17.35;31.25;95147.94;6075135;23;20026;-83
2021/03/29 06:29:17;;;;;;;17.42;7.68;;;;;;;18.83;28.76;95149.69;6075321;23;20014;-82
2021/03/29 06:31:42;;;;;;;12.70;7.18;;;;;;;20.54;26.33;95131.59;6080847;23;20010;-82
2021/03/29 06:34:07;;;;;;;13.82;7.72;;;;;;;21.35;25.06;95123.50;6047177;23;20489;-79
2021/03/29 06:36:36;;;;;;;10.80;7.18;;;;;;;22.07;24.71;95117.03;6044635;23;20102;-80
2021/03/29 06:39:34;;;;;;;22.40;9.07;;;;;;;23.23;23.30;95147.31;6049853;23;20018;-80
2021/03/29 06:41:59;;;;;;;18.10;10.55;;;;;;;23.89;22.42;95125.53;6060263;23;20027;-80
2021/03/29 06:44:27;;;;;;;18.00;8.77;;;;;;;24.79;21.62;95146.63;6076768;23;20077;-80
2021/03/29 06:47:18;;;;;;;20.55;8.57;;;;;;;24.98;21.04;95133.25;6076962;23;20010;-80
2021/03/29 06:49:53;;;;;;;15.20;8.10;;;;;;;25.54;20.61;95141.22;6082142;23;20658;-81
2021/03/29 06:52:36;;;;;;;10.93;6.18;;;;;;;25.69;20.21;95110.69;6072471;23;20074;-82
2021/03/29 06:55:17;;;;;;;7.60;4.20;;;;;;;26.55;18.68;95150.09;6049161;23;20049;-82
2021/03/29 06:57:44;;;;;;;8.13;4.47;;;;;;;26.99;18.53;95147.88;6047396;23;20019;-81
2021/03/29 07:00:14;;;;;;;6.65;4.03;;;;;;;27.26;17.47;95156.09;6049265;23;20018;-81
2021/03/29 07:02:46;;;;;;;7.97;3.35;;;;;;;27.22;16.61;95142.44;6046411;23;20543;-83
2021/03/29 07:05:12;;;;;;;3.97;3.00;;;;;;;27.55;16.53;95139.19;6049362;23;20019;-84
2021/03/29 07:07:39;;;;;;;3.78;3.00;;;;;;;27.92;16.96;95156.44;6049267;23;20191;-84
2021/03/29 07:10:07;;;;;;;5.18;3.28;;;;;;;28.74;15.67;95147.47;6076186;23;20045;-84
2021/03/29 07:12:41;;;;;;;3.90;3.30;;;;;;;29.17;15.56;95153.38;6076261;23;20338;-84
2021/03/29 07:15:09;;;;;;;5.23;3.07;;;;;;;29.18;15.26;95147.53;6076318;23;20105;-83
2021/03/29 07:17:40;;;;;;;5.55;3.00;;;;;;;29.39;14.94;95135.31;6066494;23;20046;-83
2021/03/29 07:20:08;;;;;;;8.18;3.72;;;;;;;29.83;15.07;95136.06;6052298;23;20007;-84
2021/03/29 07:22:38;;;;;;;6.25;3.40;;;;;;;29.67;15.12;95149.94;6079806;23;20013;-83
2021/03/29 07:25:15;;;;;;;4.65;3.20;;;;;;;29.76;14.66;95168.72;6076438;23;20042;-83
2021/03/29 07:27:45;;;;;;;6.45;3.22;;;;;;;29.81;15.41;95156.69;6053069;23;20361;-84
2021/03/29 07:30:15;;;;;;;5.85;3.53;;;;;;;30.26;14.72;95153.50;6032074;23;20034;-84
2021/03/29 19:18:47;;;;;;;12.15;5.65;;;;;;;12.24;35.93;95040.84;5018130;27;20418;-90
2021/03/29 19:21:13;;;;;;;7.65;5.00;;;;;;;12.11;36.17;95007.75;5000381;28;20042;-83
2021/03/29 19:23:39;;;;;;;9.98;5.72;;;;;;;12.23;36.81;95021.50;5004558;28;20049;-90
2021/03/29 19:26:10;;;;;;;9.80;6.13;;;;;;;12.18;36.43;95013.56;5000780;28;20522;-91
2021/03/29 19:28:40;;;;;;;10.38;6.57;;;;;;;12.44;36.61;95038.94;5003580;28;20422;-89
2021/03/29 19:31:06;;;;;;;12.80;7.38;;;;;;;12.39;37.16;95046.91;5006452;28;20046;-90
2021/03/29 19:33:33;;;;;;;14.55;6.53;;;;;;;12.29;37.09;95035.53;5002354;28;20065;-90
2021/03/29 19:35:58;;;;;;;16.02;6.90;;;;;;;12.28;37.71;95031.28;4997356;28;20064;-89
2021/03/29 19:38:27;;;;;;;11.80;7.13;;;;;;;12.29;38.37;95046.94;5002351;28;20053;-91
2021/03/29 19:40:52;;;;;;;13.25;6.40;;;;;;;12.08;38.38;95013.56;4983940;28;20064;-90
2021/03/29 19:43:18;;;;;;;7.90;4.75;;;;;;;12.05;38.88;95019.41;4985836;28;20704;-85
2021/03/29 19:45:44;;;;;;;10.52;5.10;;;;;;;12.17;39.61;95051.72;4999712;28;20132;-90
2021/03/29 19:48:10;;;;;;;10.23;5.03;;;;;;;11.92;39.72;95009.38;5003397;28;20098;-91
2021/03/29 19:50:36;;;;;;;19.92;6.00;;;;;;;11.66;39.96;95001.41;5006240;28;20125;-90
2021/03/29 19:53:01;;;;;;;16.23;6.65;;;;;;;11.67;40.43;95008.31;4998874;28;20502;-91
2021/03/29 19:55:27;;;;;;;9.52;6.88;;;;;;;11.77;39.18;95023.44;5002667;28;20487;-89
2021/03/29 19:57:55;;;;;;;13.35;7.78;;;;;;;11.87;39.61;95017.34;4999620;28;20045;-88
2021/03/29 20:00:25;;;;;;;14.68;7.03;;;;;;;12.06;40.12;95058.09;5001038;28;20033;-84
2021/03/29 20:03:00;;;;;;;21.85;12.00;;;;;;;11.94;38.67;95066.31;4989266;28;20037;-91
2021/03/29 20:05:30;;;;;;;16.80;9.35;;;;;;;11.70;38.76;95052.78;5006052;28;20513;-90
2021/03/29 20:08:16;;;;;;;19.02;8.20;;;;;;;11.65;38.08;95047.50;5001900;28;20034;-90
2021/03/29 20:10:42;;;;;;;;;;;;;;;11.69;37.70;95064.44;5005113;28;20029;-89
2021/03/29 20:13:09;;;;;;;14.60;8.20;;;;;;;11.52;37.94;95055.97;5003370;28;19921;-89
2021/03/29 20:15:34;;;;;;;10.88;6.28;;;;;;;11.37;37.98;95073.66;5002283;28;20111;-90
2021/03/29 20:18:00;;;;;;;17.23;8.15;;;;;;;11.21;38.70;95078.13;5000532;28;20546;-89
2021/03/29 20:20:28;;;;;;;15.55;7.72;;;;;;;11.07;38.61;95047.94;5000485;28;20045;-86
2021/03/29 20:22:56;;;;;;;11.50;7.75;;;;;;;11.28;38.71;95079.47;4998844;28;20025;-91
2021/03/29 20:25:24;;;;;;;18.83;8.98;;;;;;;11.07;39.01;95034.69;5002768;28;20024;-87
2021/03/29 20:27:50;;;;;;;15.65;8.25;;;;;;;11.22;38.91;95040.81;5000073;28;20034;-90
2021/03/29 20:30:18;;;;;;;16.77;8.98;;;;;;;11.43;39.14;95065.47;4986658;28;20092;-90
2021/03/29 20:32:44;;;;;;;18.10;8.57;;;;;;;11.35;39.12;95054.59;4980339;28;20104;-89
2021/03/29 20:35:13;;;;;;;15.02;7.50;;;;;;;11.45;38.91;95084.53;4990036;28;20241;-90
2021/03/29 20:37:38;;;;;;;19.48;9.65;;;;;;;11.45;39.15;95087.19;4991810;28;20630;-90
2021/03/29 20:40:08;;;;;;;17.65;9.35;;;;;;;11.29;39.53;95075.75;4988342;28;21377;-90
2021/03/29 20:42:33;;;;;;;16.60;7.85;;;;;;;11.14;39.34;95067.78;4987965;28;20042;-90
2021/03/29 20:45:05;;;;;;;12.40;7.00;;;;;;;11.03;39.58;95068.03;4984128;28;20057;-88
2021/03/29 20:47:31;;;;;;;15.77;7.30;;;;;;;11.16;39.86;95078.09;4986848;28;20970;-85
2021/03/29 20:49:59;;;;;;;10.95;6.15;;;;;;;10.90;40.17;95044.72;4986279;28;20025;-90
2021/03/29 20:52:25;;;;;;;8.60;5.28;;;;;;;10.92;40.35;95063.75;4986805;28;20430;-88
2021/03/29 20:54:51;;;;;;;9.05;4.70;;;;;;;10.91;40.21;95062.16;4990723;28;20050;-91
2021/03/29 20:57:16;;;;;;;9.50;5.15;;;;;;;10.66;41.11;95023.19;4984892;28;20039;-89
2021/03/29 20:59:42;;;;;;;6.80;4.43;;;;;;;10.57;41.90;95007.03;4986402;28;20042;-91
2021/03/29 21:02:07;;;;;;;10.75;5.13;;;;;;;10.56;43.16;95002.78;4988803;28;20053;-90
2021/03/29 21:04:33;;;;;;;4.90;4.15;;;;;;;10.77;43.84;95051.25;4990672;28;20093;-90
2021/03/29 21:06:58;;;;;;;8.88;4.95;;;;;;;10.62;44.24;95033.50;4987933;28;20522;-91
2021/03/29 21:09:27;;;;;;;9.10;4.18;;;;;;;10.48;44.78;95008.59;4989830;28;20046;-90
2021/03/29 21:11:59;;;;;;;8.52;3.60;;;;;;;10.42;44.83;95002.47;4987487;28;20595;-84
2021/03/29 21:14:25;;;;;;;6.03;3.55;;;;;;;10.62;45.24;95030.84;4991321;28;20056;-89
2021/03/29 21:16:53;;;;;;;8.15;3.75;;;;;;;10.56;44.92;95023.94;4990516;28;20038;-90
2021/03/29 21:19:18;;;;;;;8.68;3.30;;;;;;;10.58;44.75;95021.84;4990166;28;20018;-90
2021/03/29 21:21:44;;;;;;;9.15;4.18;;;;;;;10.39;45.47;95003.00;4985977;28;20112;-91
2021/03/29 21:24:13;;;;;;;5.70;3.40;;;;;;;10.64;45.08;95020.81;4987534;28;20088;-90
2021/03/29 21:26:48;;;;;;;8.35;3.88;;;;;;;10.50;45.07;95001.22;4988868;28;21010;-87
2021/03/29 21:29:13;;;;;;;7.60;3.72;;;;;;;10.52;45.04;94990.34;4983881;28;20056;-89
2021/03/29 21:31:39;;;;;;;5.32;3.40;;;;;;;10.66;45.31;95031.13;4989750;28;20048;-89
2021/03/29 21:34:06;;;;;;;4.78;3.28;;;;;;;10.58;45.32;95021.84;4988827;28;20042;-88
2021/03/29 21:36:36;;;;;;;7.47;3.40;;;;;;;10.45;45.79;95011.75;4985798;28;20112;-90
2021/03/29 21:39:06;;;;;;;7.28;4.47;;;;;;;10.48;45.94;95031.56;4987008;28;20058;-90
2021/03/29 21:41:33;;;;;;;6.30;4.32;;;;;;;10.12;46.08;94988.28;4990056;28;20042;-91
2021/03/29 21:44:02;;;;;;;7.35;4.43;;;;;;;10.16;46.52;95003.44;4977298;28;20022;-90
2021/03/29 21:46:27;;;;;;;6.95;3.67;;;;;;;10.04;46.59;94989.59;4987286;28;20022;-90
2021/03/29 21:48:59;;;;;;;5.43;3.83;;;;;;;9.82;46.04;94965.94;4963907;28;20041;-92
2021/03/29 21:51:27;;;;;;;8.20;3.60;;;;;;;9.79;46.57;94955.91;4983566;28;20046;-89
2021/03/29 21:53:52;;;;;;;6.10;3.70;;;;;;;10.07;46.81;95014.69;4985699;28;20394;-87
2021/03/29 21:56:22;;;;;;;10.02;3.33;;;;;;;10.02;46.98;95013.59;4989980;28;20044;-87
2021/03/29 21:58:47;;;;;;;4.50;3.30;;;;;;;9.79;47.14;94982.31;4990826;28;20550;-89
2021/03/29 22:01:16;;;;;;;5.30;3.13;;;;;;;9.92;47.07;95010.88;5000468;28;20046;-90
2021/03/29 22:03:43;;;;;;;6.07;3.17;;;;;;;9.75;47.06;94993.63;4986778;28;20129;-90
2021/03/29 22:06:08;;;;;;;5.32;3.15;;;;;;;9.64;47.27;94984.84;4981994;28;20175;-90
2021/03/29 22:08:34;;;;;;;5.28;3.60;;;;;;;9.86;47.21;95019.84;4990288;28;20152;-91
2021/03/29 22:11:01;;;;;;;4.90;3.08;;;;;;;9.87;47.09;95021.41;4987688;28;20068;-90
2021/03/29 22:13:26;;;;;;;7.82;3.50;;;;;;;9.64;47.04;95003.31;4990782;28;20053;-92
2021/03/29 22:15:52;;;;;;;4.10;3.08;;;;;;;9.81;46.97;95019.00;4983233;28;20038;-87
2021/03/29 22:18:17;;;;;;;8.45;3.25;;;;;;;9.78;47.47;95017.66;4986523;28;20049;-91
2021/03/29 22:20:47;;;;;;;5.82;3.30;;;;;;;9.75;47.59;95017.38;4987323;28;20026;-92
2021/03/29 22:23:13;;;;;;;6.30;4.13;;;;;;;9.64;47.21;95000.66;4988335;28;20124;-87
2021/03/29 22:25:40;;;;;;;5.45;3.30;;;;;;;9.53;47.39;94965.47;4988386;28;20040;-90
2021/03/29 22:44:10;;;;;;;6.55;3.80;;;;;;;9.57;48.71;95006.19;4992679;28;20045;-89
2021/03/29 22:46:38;;;;;;;6.10;3.22;;;;;;;9.61;49.32;95021.50;4990537;28;20030;-90
2021/03/29 22:49:04;;;;;;;8.23;3.67;;;;;;;9.35;49.57;94991.47;4986941;28;20037;-90
2021/03/29 22:51:31;;;;;;;7.32;4.05;;;;;;;9.57;49.60;95023.84;4987189;28;20438;-90
2021/03/29 22:53:57;;;;;;;5.88;4.20;;;;;;;9.36;48.29;94983.31;4985599;28;20520;-90
2021/03/29 22:56:25;;;;;;;10.68;3.70;;;;;;;9.48;48.10;94981.28;4988962;28;20050;-90
2021/03/29 22:58:51;;;;;;;7.10;4.57;;;;;;;9.42;48.36;94984.16;4982353;28;20568;-89
2021/03/29 23:01:19;;;;;;;11.27;8.05;;;;;;;9.54;48.21;94992.66;4988808;28;20021;-82
2021/03/29 23:03:44;;;;;;;10.00;4.80;;;;;;;9.75;47.98;95020.81;4985185;28;20582;-86
2021/03/29 23:06:10;;;;;;;6.70;4.43;;;;;;;9.56;47.52;94996.66;4988733;28;20049;-89
2021/03/29 23:08:35;;;;;;;9.05;4.50;;;;;;;9.83;47.18;95022.97;4984407;28;20129;-89
2021/03/29 23:11:01;;;;;;;12.35;4.72;;;;;;;9.78;46.88;94993.91;4985065;28;20036;-90
2021/03/29 23:13:29;;;;;;;6.88;4.20;;;;;;;9.78;47.42;94990.47;4985698;28;20032;-88
2021/03/29 23:15:54;;;;;;;5.45;4.35;;;;;;;9.77;47.14;95000.25;4960190;28;20034;-89
2021/03/29 23:18:20;;;;;;;9.75;4.40;;;;;;;9.86;47.54;95017.22;4986924;28;20104;-89
2021/03/29 23:20:49;;;;;;;8.35;4.72;;;;;;;9.84;47.43;95019.28;4986629;28;20092;-86
2021/03/29 23:23:14;;;;;;;8.35;4.32;;;;;;;9.82;47.55;95013.47;4988804;28;20054;-88
2021/03/29 23:25:39;;;;;;;7.38;4.10;;;;;;;9.81;47.81;95017.16;4987903;28;20030;-89
2021/03/29 23:28:05;;;;;;;7.75;4.80;;;;;;;9.82;48.08;95029.31;4985340;28;20088;-81
2021/03/29 23:30:31;;;;;;;5.25;4.38;;;;;;;9.72;48.50;95012.63;4983020;28;20402;-89
2021/03/29 23:32:56;;;;;;;5.95;4.57;;;;;;;9.79;48.34;95026.38;4987314;28;20042;-89
2021/03/29 23:35:22;;;;;;;6.57;4.70;;;;;;;9.59;48.29;95005.91;4990026;28;20037;-89
2021/03/29 23:37:48;;;;;;;6.78;4.03;;;;;;;9.63;48.36;95020.19;5000650;28;20022;-83
2021/03/29 23:40:14;;;;;;;8.18;4.25;;;;;;;9.66;47.72;95014.41;4988092;28;20034;-88
2021/03/29 23:42:39;;;;;;;5.18;4.10;;;;;;;9.81;48.18;95021.66;4988131;28;20056;-89
2021/03/29 23:45:05;;;;;;;12.30;5.80;;;;;;;9.73;47.93;95004.44;4985501;28;20162;-89